Time;durP1;ratioP1;P1;durP2;ratioP2;P2;SDS_P1;SDS_P2;PMS_P1;PMS_P2;Temp;Humidity;BMP_temperature;BMP_pressure;BME280_temperature;BME280_humidity;BME280_pressure;Samples;Min_cycle;Max_cycle;Signal;HPM_P1;HPM_P2
2021/10/22 00:00:07;;;;;;;4.28;1.73;;;;;;;8.11;100.00;95848.13;1028250;28;20027;-49
2021/10/22 00:00:38;;;;;;;5.25;1.40;;;;;;;8.07;100.00;95857.91;1031814;28;20575;-49
2021/10/22 00:01:09;;;;;;;7.13;1.40;;;;;;;8.07;100.00;95868.34;1027978;28;20270;-48
2021/10/22 00:01:40;;;;;;;5.35;1.20;;;;;;;8.08;100.00;95851.75;1028286;28;20783;-50
2021/10/22 00:02:11;;;;;;;5.18;1.13;;;;;;;8.07;100.00;95852.69;1032401;28;20356;-50
2021/10/22 00:02:42;;;;;;;4.82;1.67;;;;;;;8.07;100.00;95854.44;1032463;28;20481;-50
2021/10/22 00:03:13;;;;;;;7.97;1.30;;;;;;;8.06;100.00;95855.41;1028459;28;20760;-50
2021/10/22 00:03:44;;;;;;;3.80;1.52;;;;;;;8.07;100.00;95846.63;1028779;28;20269;-48
2021/10/22 00:04:15;;;;;;;4.20;1.30;;;;;;;8.05;100.00;95849.34;1028747;28;20015;-50
2021/10/22 00:04:46;;;;;;;4.50;1.30;;;;;;;8.04;100.00;95862.47;1028352;28;20019;-49
2021/10/22 00:05:16;;;;;;;4.60;1.30;;;;;;;8.00;100.00;95864.44;1032393;28;20026;-48
2021/10/22 00:05:47;;;;;;;5.35;1.42;;;;;;;8.00;100.00;95872.28;1032517;28;20271;-49
2021/10/22 00:06:17;;;;;;;5.15;1.58;;;;;;;7.97;100.00;95870.66;1032152;28;20018;-48
2021/10/22 00:06:48;;;;;;;4.22;1.10;;;;;;;7.95;100.00;95866.50;1032374;28;20057;-50
2021/10/22 00:07:19;;;;;;;3.47;1.23;;;;;;;7.93;100.00;95876.19;1032303;28;20069;-49
2021/10/22 00:07:50;;;;;;;4.07;1.27;;;;;;;7.93;100.00;95876.19;1028388;28;20050;-49
2021/10/22 00:08:21;;;;;;;5.97;1.15;;;;;;;7.90;100.00;95882.44;1028167;28;20328;-49
2021/10/22 00:08:51;;;;;;;6.03;1.20;;;;;;;7.91;100.00;95880.66;1024806;28;20018;-49
2021/10/22 00:09:22;;;;;;;4.80;1.30;;;;;;;7.93;100.00;95884.00;1032835;28;20082;-48
2021/10/22 00:09:53;;;;;;;5.30;1.13;;;;;;;7.92;100.00;95885.78;1036342;28;20032;-49
2021/10/22 00:10:23;;;;;;;3.42;1.20;;;;;;;7.92;100.00;95884.94;1040274;28;20041;-49
2021/10/22 00:10:54;;;;;;;4.40;1.33;;;;;;;7.86;100.00;95891.34;1032103;28;20160;-50
2021/10/22 00:11:25;;;;;;;6.60;1.35;;;;;;;7.86;100.00;95890.53;1028363;28;20042;-49
2021/10/22 00:11:56;;;;;;;5.50;1.38;;;;;;;7.85;100.00;95879.25;1032497;28;20022;-49
2021/10/22 00:12:26;;;;;;;5.07;1.40;;;;;;;7.82;100.00;95889.88;1036373;28;20018;-49
2021/10/22 00:12:57;;;;;;;4.05;1.35;;;;;;;7.78;100.00;95904.84;1035983;28;20084;-50
2021/10/22 00:13:27;;;;;;;6.68;1.60;;;;;;;7.81;100.00;95910.81;1036190;28;20105;-49
2021/10/22 00:13:58;;;;;;;2.53;1.00;;;;;;;7.82;100.00;95912.50;1028072;28;20049;-48
2021/10/22 00:14:29;;;;;;;5.30;1.40;;;;;;;7.79;100.00;95909.16;1028137;28;20019;-49
2021/10/22 00:15:00;;;;;;;3.58;1.10;;;;;;;7.78;100.00;95906.63;1024216;28;20110;-49
2021/10/22 00:15:30;;;;;;;3.50;1.10;;;;;;;7.77;100.00;95915.38;1028383;28;20393;-49
2021/10/22 00:16:01;;;;;;;3.83;1.02;;;;;;;7.77;100.00;95911.03;1027956;28;20270;-49
2021/10/22 00:16:33;;;;;;;4.38;1.48;;;;;;;7.78;100.00;95915.28;1032108;28;20085;-49
2021/10/22 00:17:03;;;;;;;4.68;1.20;;;;;;;7.79;100.00;95913.53;1027947;28;20277;-49
2021/10/22 00:17:37;;;;;;;4.38;1.10;;;;;;;7.78;100.00;95914.47;1036374;28;20698;-49
2021/10/22 00:18:07;;;;;;;4.13;1.20;;;;;;;7.79;100.00;95911.78;1032333;28;20014;-50
2021/10/22 00:18:38;;;;;;;2.15;0.85;;;;;;;7.79;100.00;95908.34;1032124;28;20313;-49
2021/10/22 00:19:09;;;;;;;2.13;0.88;;;;;;;7.78;100.00;95920.50;1028186;28;20396;-50
2021/10/22 00:19:40;;;;;;;2.55;0.90;;;;;;;7.78;100.00;95914.47;1032261;28;20073;-49
2021/10/22 00:20:11;;;;;;;2.17;0.95;;;;;;;7.79;100.00;95910.94;1032420;28;20033;-49
2021/10/22 00:20:41;;;;;;;3.70;1.17;;;;;;;7.78;100.00;95911.84;1040319;28;20653;-49
2021/10/22 00:21:12;;;;;;;3.85;1.27;;;;;;;7.82;100.00;95915.13;1036194;28;20524;-49
2021/10/22 00:21:43;;;;;;;3.97;1.00;;;;;;;7.79;100.00;95910.94;1032218;28;20043;-49
2021/10/22 00:22:14;;;;;;;3.15;0.90;;;;;;;7.82;100.00;95917.72;1028461;28;20023;-50
2021/10/22 00:22:45;;;;;;;4.90;1.27;;;;;;;7.77;100.00;95917.97;1035894;28;20113;-49
2021/10/22 00:23:15;;;;;;;5.53;1.27;;;;;;;7.79;100.00;95916.16;1032322;28;20265;-49
2021/10/22 00:23:46;;;;;;;2.55;1.00;;;;;;;7.79;100.00;95924.81;1024262;29;20023;-49
2021/10/22 00:24:17;;;;;;;4.18;1.10;;;;;;;7.80;100.00;95917.81;1032198;28;20030;-48
2021/10/22 00:24:47;;;;;;;2.30;0.82;;;;;;;7.80;100.00;95920.44;1028118;28;20042;-49
2021/10/22 00:25:19;;;;;;;4.00;1.10;;;;;;;7.81;100.00;95916.03;1032453;28;20102;-49
2021/10/22 00:25:51;;;;;;;4.68;1.05;;;;;;;7.80;100.00;95917.81;1036383;28;20391;-49
2021/10/22 00:26:22;;;;;;;3.10;1.13;;;;;;;7.80;100.00;95920.44;1032425;28;20277;-49
2021/10/22 00:26:52;;;;;;;2.72;1.27;;;;;;;7.80;100.00;95915.22;1031934;28;20822;-49
2021/10/22 00:27:23;;;;;;;4.40;1.17;;;;;;;7.80;100.00;95917.81;1028236;28;20031;-48
2021/10/22 00:27:54;;;;;;;4.10;1.30;;;;;;;7.81;100.00;95924.72;1028366;28;20042;-49
2021/10/22 00:28:25;;;;;;;3.22;1.10;;;;;;;7.82;100.00;95928.16;1028161;28;20030;-49
2021/10/22 00:28:55;;;;;;;2.97;1.15;;;;;;;7.82;100.00;95923.78;1028419;28;20038;-51
2021/10/22 00:29:26;;;;;;;2.97;0.93;;;;;;;7.83;100.00;95925.47;1031611;28;20453;-49
2021/10/22 00:29:58;;;;;;;4.00;1.00;;;;;;;7.81;100.00;95923.84;1020083;29;20054;-48
2021/10/22 00:30:29;;;;;;;4.10;1.10;;;;;;;7.82;100.00;95925.56;1024078;29;20023;-49
2021/10/22 00:31:00;;;;;;;2.63;1.08;;;;;;;7.82;100.00;95915.13;1027908;28;20644;-49
2021/10/22 00:31:31;;;;;;;2.72;1.05;;;;;;;7.82;100.00;95929.00;1033175;28;20101;-49
2021/10/22 00:32:02;;;;;;;2.15;1.10;;;;;;;7.83;100.00;95920.25;1036153;28;20742;-49
2021/10/22 00:32:33;;;;;;;5.22;1.20;;;;;;;7.83;100.00;95916.78;1028386;28;20026;-49
2021/10/22 00:33:04;;;;;;;4.88;1.30;;;;;;;7.84;100.00;95927.13;1023855;29;20710;-49
2021/10/22 00:33:35;;;;;;;3.75;1.27;;;;;;;7.85;100.00;95918.38;1027897;28;20146;-49
2021/10/22 00:34:05;;;;;;;4.18;1.33;;;;;;;7.85;100.00;95925.38;1031949;28;20112;-50
2021/10/22 00:34:36;;;;;;;3.53;1.13;;;;;;;7.83;100.00;95929.81;1031853;28;20121;-49
2021/10/22 00:35:07;;;;;;;4.25;1.33;;;;;;;7.83;100.00;95920.25;1028118;28;20115;-48
2021/10/22 00:35:37;;;;;;;3.75;1.30;;;;;;;7.84;100.00;95921.91;1027835;28;20026;-49
2021/10/22 00:36:11;;;;;;;3.83;1.35;;;;;;;7.84;100.00;95924.53;1028314;28;20464;-48
2021/10/22 00:36:41;;;;;;;2.83;1.10;;;;;;;7.87;100.00;95928.72;1032051;28;20026;-49
2021/10/22 00:37:12;;;;;;;5.38;1.80;;;;;;;7.85;100.00;95930.59;1035938;28;20295;-50
2021/10/22 00:37:42;;;;;;;3.22;1.35;;;;;;;7.88;100.00;95925.19;1036573;28;20045;-49
2021/10/22 00:38:13;;;;;;;5.25;1.20;;;;;;;7.87;100.00;95932.16;1031997;28;20101;-49
2021/10/22 00:38:44;;;;;;;3.50;1.20;;;;;;;7.87;100.00;95926.97;1028159;28;20022;-49
2021/10/22 00:39:15;;;;;;;2.45;1.00;;;;;;;7.89;100.00;95930.31;1027973;28;20110;-50
2021/10/22 00:39:45;;;;;;;4.45;1.33;;;;;;;7.90;100.00;95926.78;1028074;28;20027;-49
2021/10/22 00:40:16;;;;;;;7.40;1.40;;;;;;;7.90;100.00;95934.59;1032321;28;20587;-50
2021/10/22 00:40:47;;;;;;;2.13;0.88;;;;;;;7.91;100.00;95931.06;1031898;28;20152;-48
2021/10/22 00:41:18;;;;;;;4.13;1.65;;;;;;;7.92;100.00;95932.75;1032031;28;20027;-48
2021/10/22 00:41:49;;;;;;;3.33;1.20;;;;;;;7.94;100.00;95927.44;1032090;28;20531;-49
2021/10/22 00:42:21;;;;;;;3.67;1.30;;;;;;;7.95;100.00;95924.72;1028369;28;20062;-49
2021/10/22 00:42:53;;;;;;;5.10;1.30;;;;;;;7.94;100.00;95937.88;1031777;28;20301;-50
2021/10/22 00:43:29;;;;;;;4.00;1.10;;;;;;;7.94;100.00;95933.50;1031854;28;20292;-49
2021/10/22 00:44:00;;;;;;;3.45;1.15;;;;;;;7.97;100.00;95930.69;1036060;28;20284;-50
2021/10/22 00:44:31;;;;;;;2.95;1.10;;;;;;;7.97;100.00;95929.84;1032334;28;20261;-50
2021/10/22 00:45:02;;;;;;;3.15;1.20;;;;;;;7.94;100.00;95935.28;1036141;28;20526;-50
2021/10/22 00:45:33;;;;;;;4.18;1.25;;;;;;;7.95;100.00;95935.16;1031942;28;20112;-49
2021/10/22 00:46:04;;;;;;;2.45;1.10;;;;;;;7.96;100.00;95936.84;1027824;28;20274;-50
2021/10/22 00:46:37;;;;;;;2.85;1.13;;;;;;;7.93;100.00;95933.56;1027889;28;20050;-50
2021/10/22 00:47:09;;;;;;;2.53;1.20;;;;;;;7.93;100.00;95939.63;1031974;28;20022;-50
2021/10/22 00:47:40;;;;;;;2.90;1.23;;;;;;;7.94;100.00;95937.88;1023912;29;20875;-49
2021/10/22 00:48:11;;;;;;;3.72;1.70;;;;;;;7.98;100.00;95942.81;1027817;28;20273;-48
2021/10/22 00:48:42;;;;;;;4.47;1.40;;;;;;;7.98;100.00;95940.19;1028394;28;20278;-49
2021/10/22 00:49:12;;;;;;;3.30;1.20;;;;;;;7.95;100.00;95948.19;1036836;28;20045;-49
2021/10/22 00:49:45;;;;;;;4.50;1.25;;;;;;;7.93;100.00;95944.84;1032002;28;20022;-49
2021/10/22 00:50:16;;;;;;;4.60;1.40;;;;;;;7.94;100.00;95943.94;1027984;28;20080;-50
2021/10/22 00:50:49;;;;;;;5.03;1.70;;;;;;;7.93;100.00;95944.84;1031795;28;20647;-49
2021/10/22 00:51:20;;;;;;;3.47;1.38;;;;;;;7.92;100.00;95944.94;1035941;28;20868;-49
2021/10/22 00:51:51;;;;;;;5.15;1.92;;;;;;;7.91;100.00;95938.88;1028399;28;20272;-49
2021/10/22 00:52:23;;;;;;;5.88;2.05;;;;;;;7.88;100.00;95944.31;1028320;28;20026;-48
2021/10/22 00:52:54;;;;;;;3.92;1.60;;;;;;;7.86;100.00;95948.75;1028103;28;20512;-49
2021/10/22 00:53:25;;;;;;;5.72;2.10;;;;;;;7.83;100.00;95948.94;1027805;28;20368;-50
2021/10/22 00:53:55;;;;;;;3.97;1.50;;;;;;;7.81;100.00;95940.38;1024599;28;20493;-48
2021/10/22 00:54:26;;;;;;;3.67;2.00;;;;;;;7.82;100.00;95936.81;1023703;29;20110;-49
2021/10/22 00:54:57;;;;;;;4.88;2.38;;;;;;;7.85;100.00;95944.47;1024032;29;20020;-48
2021/10/22 00:55:29;;;;;;;4.40;1.92;;;;;;;7.87;100.00;95947.00;1024511;28;20015;-49
2021/10/22 00:56:00;;;;;;;6.70;2.55;;;;;;;7.86;100.00;95958.34;1031844;28;20089;-49
2021/10/22 00:56:30;;;;;;;8.40;2.80;;;;;;;7.82;100.00;95951.63;1032581;28;20297;-50
2021/10/22 00:57:02;;;;;;;5.03;1.95;;;;;;;7.82;100.00;95956.84;1035984;28;20113;-49
2021/10/22 00:57:33;;;;;;;5.38;2.30;;;;;;;7.79;100.00;95950.06;1032110;28;20014;-49
2021/10/22 00:58:03;;;;;;;6.30;2.60;;;;;;;7.80;100.00;95949.13;1036136;28;20257;-49
2021/10/22 00:58:34;;;;;;;5.00;2.03;;;;;;;7.79;100.00;95950.06;1036225;28;20014;-50
2021/10/22 00:59:06;;;;;;;5.63;1.75;;;;;;;7.82;100.00;95951.63;1031951;28;20101;-49
2021/10/22 00:59:38;;;;;;;5.30;2.30;;;;;;;7.81;100.00;95947.34;1027834;28;20888;-51
2021/10/22 01:00:09;;;;;;;4.35;2.10;;;;;;;7.80;100.00;95943.91;1031986;28;20806;-49
2021/10/22 01:00:40;;;;;;;8.77;2.60;;;;;;;7.78;100.00;95951.81;1035873;28;20293;-49
2021/10/22 01:01:11;;;;;;;6.65;2.30;;;;;;;7.79;100.00;95945.69;1035875;28;20253;-49
2021/10/22 01:01:42;;;;;;;6.28;2.38;;;;;;;7.79;100.00;95950.06;1027698;28;20481;-49
2021/10/22 01:02:13;;;;;;;5.13;2.40;;;;;;;7.79;100.00;95953.50;1035959;28;20045;-49
2021/10/22 01:02:43;;;;;;;6.05;2.67;;;;;;;7.79;100.00;95950.91;1039839;28;20283;-49
2021/10/22 01:03:14;;;;;;;5.35;2.22;;;;;;;7.81;100.00;95948.19;1031321;28;20067;-49
2021/10/22 01:03:45;;;;;;;8.13;2.60;;;;;;;7.79;100.00;95947.44;1027517;28;20532;-48
2021/10/22 01:04:16;;;;;;;8.05;2.30;;;;;;;7.78;100.00;95946.59;1023677;29;20443;-49
2021/10/22 01:04:46;;;;;;;5.50;2.58;;;;;;;7.80;100.00;95949.13;1031761;28;20093;-49
2021/10/22 01:05:17;;;;;;;5.20;2.60;;;;;;;7.76;100.00;95950.22;1036058;28;20100;-50
2021/10/22 01:05:48;;;;;;;4.38;2.20;;;;;;;7.71;100.00;95939.22;1036095;28;20006;-50
2021/10/22 01:06:19;;;;;;;6.07;2.55;;;;;;;7.75;100.00;95940.72;1031655;28;20038;-49
2021/10/22 01:06:50;;;;;;;5.45;2.88;;;;;;;7.68;100.00;95947.25;1031706;28;20007;-49
2021/10/22 01:07:20;;;;;;;5.97;2.38;;;;;;;7.66;100.00;95947.34;1031555;28;20266;-49
2021/10/22 01:07:51;;;;;;;4.70;2.20;;;;;;;7.68;100.00;95939.44;1031765;28;20066;-50
2021/10/22 01:08:22;;;;;;;5.65;2.47;;;;;;;7.69;100.00;95951.50;1031595;28;20101;-49
2021/10/22 01:08:52;;;;;;;6.45;2.50;;;;;;;7.67;100.00;95943.78;1031900;28;20014;-50
2021/10/22 01:09:23;;;;;;;7.25;2.95;;;;;;;7.65;100.00;95947.41;1031536;28;20043;-49
2021/10/22 01:09:54;;;;;;;4.72;2.38;;;;;;;7.68;100.00;95949.84;1035682;28;20038;-50
2021/10/22 01:10:24;;;;;;;6.68;2.83;;;;;;;7.63;100.00;95944.06;1031657;28;20038;-50
2021/10/22 01:10:55;;;;;;;5.50;2.67;;;;;;;7.67;100.00;95950.78;1027496;28;20093;-49
2021/10/22 01:11:26;;;;;;;6.85;2.67;;;;;;;7.68;100.00;95949.84;1031550;28;20484;-50
2021/10/22 01:11:56;;;;;;;6.68;2.95;;;;;;;7.69;100.00;95948.91;1027584;28;20505;-49
2021/10/22 01:12:27;;;;;;;6.85;2.75;;;;;;;7.63;100.00;95950.09;1027586;28;20110;-50
2021/10/22 01:12:57;;;;;;;5.72;3.03;;;;;;;7.69;100.00;95952.34;1027551;28;20618;-50
2021/10/22 01:13:29;;;;;;;7.47;3.08;;;;;;;7.68;100.00;95949.84;1027678;28;20003;-49
2021/10/22 01:14:01;;;;;;;7.13;2.70;;;;;;;7.70;100.00;95943.59;1027816;28;20025;-50
2021/10/22 01:14:32;;;;;;;7.45;3.40;;;;;;;7.71;100.00;95950.47;1031567;28;20319;-50
2021/10/22 01:15:04;;;;;;;7.38;3.08;;;;;;;7.66;100.00;95949.94;1031609;28;20353;-49
2021/10/22 01:15:35;;;;;;;7.82;2.95;;;;;;;7.56;100.00;95951.38;1031502;28;20034;-49
2021/10/22 01:16:06;;;;;;;7.38;3.10;;;;;;;7.55;100.00;95947.13;1027721;28;20661;-50
2021/10/22 01:16:38;;;;;;;5.53;2.90;;;;;;;7.53;100.00;95949.81;1024360;28;20035;-50
2021/10/22 01:17:29;;;;;;;5.05;2.70;;;;;;;7.51;100.00;95953.44;1032232;28;20069;-49
2021/10/22 01:18:00;;;;;;;7.35;3.55;;;;;;;7.48;100.00;95954.44;1030672;28;20265;-50
2021/10/22 01:18:31;;;;;;;7.88;2.90;;;;;;;7.49;100.00;95956.13;1034881;28;20453;-49
2021/10/22 01:19:02;;;;;;;6.78;3.20;;;;;;;7.51;100.00;95962.09;1031602;28;20273;-50
2021/10/22 01:19:33;;;;;;;5.70;2.90;;;;;;;7.52;100.00;95961.16;1031453;28;20022;-48
2021/10/22 01:20:06;;;;;;;5.65;3.10;;;;;;;7.50;100.00;95962.19;1027635;28;20023;-50
2021/10/22 01:20:39;;;;;;;6.05;3.30;;;;;;;7.44;100.00;95962.53;1023553;29;20023;-49
2021/10/22 01:21:11;;;;;;;5.72;3.33;;;;;;;7.39;100.00;95944.56;1024494;28;20353;-49
2021/10/22 01:21:43;;;;;;;7.32;3.85;;;;;;;7.51;100.00;95953.44;1028492;28;20817;-50
2021/10/22 01:22:14;;;;;;;7.15;3.30;;;;;;;7.56;100.00;95962.69;1032303;28;20257;-50
2021/10/22 01:22:46;;;;;;;6.00;3.22;;;;;;;7.43;100.00;95934.78;1031571;28;20623;-48
2021/10/22 01:23:17;;;;;;;6.00;3.50;;;;;;;7.50;100.00;95957.81;1031575;28;20022;-49
2021/10/22 01:23:48;;;;;;;6.70;3.47;;;;;;;7.50;100.00;95959.56;1035481;28;20931;-49
2021/10/22 01:24:19;;;;;;;8.73;3.50;;;;;;;7.48;100.00;95962.25;1031554;28;20273;-50
2021/10/22 01:24:49;;;;;;;6.55;2.95;;;;;;;7.50;100.00;95965.63;1031915;28;20052;-50
2021/10/22 01:25:24;;;;;;;5.47;3.20;;;;;;;7.45;100.00;95962.47;1027626;28;20034;-49
2021/10/22 01:25:54;;;;;;;6.22;3.10;;;;;;;7.43;100.00;95959.06;1028086;28;20027;-49
2021/10/22 01:26:25;;;;;;;7.05;3.70;;;;;;;7.45;100.00;95962.47;1028299;28;20273;-50
2021/10/22 01:26:56;;;;;;;7.25;3.25;;;;;;;7.46;100.00;95961.53;1027514;28;20026;-50
2021/10/22 01:27:27;;;;;;;4.93;3.25;;;;;;;7.44;100.00;95958.16;1031627;28;20106;-50
2021/10/22 01:27:58;;;;;;;5.72;3.22;;;;;;;7.42;100.00;95959.19;1031847;28;20340;-48
2021/10/22 01:28:29;;;;;;;6.82;3.50;;;;;;;7.40;100.00;95962.72;1032179;28;20301;-49
2021/10/22 01:29:00;;;;;;;6.93;3.70;;;;;;;7.49;100.00;95968.31;1035725;28;20088;-49
2021/10/22 01:29:30;;;;;;;7.55;4.10;;;;;;;7.49;100.00;95966.56;1035643;28;20299;-50
2021/10/22 01:30:03;;;;;;;11.70;4.28;;;;;;;7.46;100.00;95966.72;1035891;28;20100;-50
2021/10/22 01:30:33;;;;;;;9.13;4.18;;;;;;;7.45;100.00;95969.41;1035859;28;20013;-49
2021/10/22 01:31:04;;;;;;;7.85;3.80;;;;;;;7.49;100.00;95963.97;1039701;28;20637;-50
2021/10/22 01:31:35;;;;;;;8.60;3.88;;;;;;;7.45;100.00;95967.69;1035601;28;20063;-50
2021/10/22 01:32:05;;;;;;;6.55;3.67;;;;;;;7.45;100.00;95967.69;1027581;28;20046;-49
2021/10/22 01:32:36;;;;;;;8.02;4.03;;;;;;;7.45;100.00;95964.22;1031532;28;20046;-50
2021/10/22 01:33:07;;;;;;;7.13;4.00;;;;;;;7.48;100.00;95966.66;1027622;28;20508;-49
2021/10/22 01:33:39;;;;;;;9.95;4.53;;;;;;;7.49;100.00;95969.19;1028139;28;20452;-49
2021/10/22 01:34:09;;;;;;;5.90;3.97;;;;;;;7.48;100.00;95975.31;1031656;28;20774;-50
2021/10/22 01:34:40;;;;;;;7.38;3.63;;;;;;;7.46;100.00;95971.13;1023551;28;20259;-50
2021/10/22 01:35:11;;;;;;;6.35;4.03;;;;;;;7.46;100.00;95973.72;1024018;28;20019;-49
2021/10/22 01:35:42;;;;;;;6.93;4.00;;;;;;;7.48;100.00;95969.25;1024129;28;20045;-50
2021/10/22 01:36:13;;;;;;;6.90;4.00;;;;;;;7.45;100.00;95972.03;1027841;28;20254;-49
2021/10/22 01:36:43;;;;;;;8.57;4.30;;;;;;;7.43;100.00;95971.28;1027481;28;20063;-49
2021/10/22 01:37:15;;;;;;;11.15;4.30;;;;;;;7.42;100.00;95975.66;1023562;29;20088;-49
2021/10/22 01:37:46;;;;;;;7.05;4.10;;;;;;;7.45;100.00;95980.72;1023492;29;20118;-49
2021/10/22 01:38:20;;;;;;;6.45;3.97;;;;;;;7.43;100.00;95979.94;1027438;28;20285;-51
2021/10/22 01:38:51;;;;;;;6.82;4.20;;;;;;;7.39;100.00;95976.69;1031713;28;20327;-50
2021/10/22 01:39:22;;;;;;;10.57;4.63;;;;;;;7.41;100.00;95979.19;1032412;28;20269;-49
2021/10/22 01:39:52;;;;;;;7.93;4.10;;;;;;;7.42;100.00;95985.25;1024215;28;20290;-50
2021/10/22 01:40:23;;;;;;;7.78;4.28;;;;;;;7.41;100.00;95979.19;1023967;28;20051;-50
2021/10/22 01:40:55;;;;;;;11.05;5.00;;;;;;;7.42;100.00;95973.06;1031484;28;20018;-49
2021/10/22 01:41:26;;;;;;;8.75;4.68;;;;;;;7.47;100.00;95981.47;1031953;28;20015;-50
2021/10/22 01:41:57;;;;;;;8.60;4.45;;;;;;;7.50;100.00;95983.88;1027444;28;20349;-50
2021/10/22 01:42:28;;;;;;;7.28;4.20;;;;;;;7.51;100.00;95982.97;1023309;29;20106;-49
2021/10/22 01:42:58;;;;;;;7.28;4.30;;;;;;;7.48;100.00;95982.28;1023381;29;20076;-50
2021/10/22 01:43:30;;;;;;;5.85;3.97;;;;;;;7.48;100.00;95974.47;1027569;28;20042;-49
2021/10/22 01:44:01;;;;;;;6.25;4.32;;;;;;;7.50;100.00;95977.81;1031606;28;20037;-50
2021/10/22 01:44:33;;;;;;;7.15;4.55;;;;;;;7.47;100.00;95983.22;1027385;28;20264;-49
2021/10/22 01:45:05;;;;;;;5.75;4.07;;;;;;;7.44;100.00;95983.41;1023588;29;20306;-50
2021/10/22 01:45:36;;;;;;;7.10;4.80;;;;;;;7.44;100.00;95984.22;1023394;29;20271;-49
2021/10/22 01:46:07;;;;;;;8.63;4.35;;;;;;;7.40;100.00;95978.34;1028066;28;20277;-50
2021/10/22 01:46:38;;;;;;;7.82;4.00;;;;;;;7.44;100.00;95983.41;1031544;28;20253;-49
2021/10/22 01:47:09;;;;;;;7.68;4.72;;;;;;;7.40;100.00;95977.53;1023843;28;20271;-49
2021/10/22 01:47:40;;;;;;;9.25;4.22;;;;;;;7.40;100.00;95977.53;1027855;28;20358;-50
2021/10/22 01:48:11;;;;;;;6.95;3.83;;;;;;;7.40;100.00;95978.34;1031572;28;20116;-49
2021/10/22 01:48:43;;;;;;;6.55;4.22;;;;;;;7.46;100.00;95977.16;1035785;28;20033;-49
2021/10/22 01:49:14;;;;;;;7.35;4.03;;;;;;;7.53;100.00;95977.66;1035648;28;20626;-49
2021/10/22 01:49:44;;;;;;;7.05;4.15;;;;;;;7.53;100.00;95975.06;1035962;28;20340;-50
2021/10/22 01:50:15;;;;;;;5.78;3.70;;;;;;;7.52;100.00;95974.19;1035732;28;20017;-50
2021/10/22 01:50:46;;;;;;;6.00;3.60;;;;;;;7.47;100.00;95971.03;1031300;28;20050;-50
2021/10/22 01:51:16;;;;;;;9.70;4.25;;;;;;;7.49;100.00;95978.75;1027411;28;20125;-50
2021/10/22 01:51:47;;;;;;;7.18;4.00;;;;;;;7.46;100.00;95977.16;1031552;28;20088;-50
2021/10/22 01:52:18;;;;;;;6.18;3.50;;;;;;;7.44;100.00;95976.41;1035526;28;20026;-48
2021/10/22 01:52:49;;;;;;;6.25;3.80;;;;;;;7.44;100.00;95973.81;1031319;28;20029;-48
2021/10/22 01:53:19;;;;;;;8.13;3.90;;;;;;;7.45;100.00;95974.63;1023519;28;20086;-50
2021/10/22 01:53:50;;;;;;;7.50;3.97;;;;;;;7.39;100.00;95970.63;1027531;28;20023;-50
2021/10/22 01:54:21;;;;;;;6.10;3.65;;;;;;;7.41;100.00;95973.97;1031453;28;20520;-49
2021/10/22 01:54:51;;;;;;;6.03;3.40;;;;;;;7.39;100.00;95968.00;1027595;28;20027;-50
2021/10/22 01:55:22;;;;;;;6.53;3.72;;;;;;;7.41;100.00;95973.97;1027537;28;20424;-49
2021/10/22 01:55:53;;;;;;;7.15;3.53;;;;;;;7.31;100.00;95958.03;1027883;28;20061;-50
2021/10/22 01:56:24;;;;;;;7.45;4.05;;;;;;;7.39;100.00;95968.88;1035538;28;20346;-50
2021/10/22 01:56:55;;;;;;;7.78;4.28;;;;;;;7.42;100.00;95974.84;1027643;28;20096;-50
2021/10/22 01:57:26;;;;;;;5.63;3.50;;;;;;;7.39;100.00;95971.47;1027471;28;20588;-50
2021/10/22 01:57:57;;;;;;;4.65;3.08;;;;;;;7.40;100.00;95972.31;1031578;28;20270;-50
2021/10/22 01:58:28;;;;;;;4.88;3.10;;;;;;;7.42;100.00;95972.22;1031492;28;20297;-50
2021/10/22 01:58:59;;;;;;;5.53;3.25;;;;;;;7.43;100.00;95969.50;1035481;28;20026;-50
2021/10/22 01:59:30;;;;;;;7.18;3.10;;;;;;;7.37;100.00;95973.31;1023492;28;20030;-50
2021/10/22 02:00:03;;;;;;;6.10;3.35;;;;;;;7.36;100.00;95969.03;1027724;28;20341;-50
2021/10/22 02:00:34;;;;;;;4.93;3.20;;;;;;;7.42;100.00;95970.44;1027381;28;20696;-51
2021/10/22 02:01:04;;;;;;;7.00;3.25;;;;;;;7.39;100.00;95968.00;1027850;28;20353;-50
2021/10/22 02:01:35;;;;;;;6.57;3.35;;;;;;;7.39;100.00;95975.81;1027470;28;20046;-50
2021/10/22 02:02:06;;;;;;;5.57;3.05;;;;;;;7.38;100.00;95974.16;1031921;28;20029;-50
2021/10/22 02:02:37;;;;;;;6.43;3.30;;;;;;;7.41;100.00;95976.56;1035540;28;20014;-50
2021/10/22 02:03:07;;;;;;;6.25;3.25;;;;;;;7.39;100.00;95968.00;1035613;28;20253;-50
2021/10/22 02:03:38;;;;;;;5.72;3.25;;;;;;;7.40;100.00;95967.94;1035579;28;20462;-50
2021/10/22 02:04:09;;;;;;;7.18;2.90;;;;;;;7.38;100.00;95972.38;1031735;28;20046;-50
2021/10/22 02:04:39;;;;;;;5.75;3.50;;;;;;;7.36;100.00;95968.19;1027536;28;20113;-49
2021/10/22 02:05:10;;;;;;;4.10;2.90;;;;;;;7.37;100.00;95972.47;1031548;28;20018;-50
2021/10/22 02:05:41;;;;;;;6.18;3.10;;;;;;;7.36;100.00;95970.81;1035530;28;20013;-49
2021/10/22 02:06:11;;;;;;;6.82;3.20;;;;;;;7.32;100.00;95969.28;1039671;28;20017;-49
2021/10/22 02:06:43;;;;;;;4.57;2.60;;;;;;;7.36;100.00;95974.25;1031564;28;20014;-51
2021/10/22 02:07:13;;;;;;;4.55;2.40;;;;;;;7.34;100.00;95968.28;1031545;28;20022;-49
2021/10/22 02:07:44;;;;;;;5.00;2.83;;;;;;;7.33;100.00;95973.59;1023505;28;20271;-50
2021/10/22 02:08:15;;;;;;;5.45;3.10;;;;;;;7.37;100.00;95969.88;1032469;28;20022;-50
2021/10/22 02:08:46;;;;;;;4.25;2.70;;;;;;;7.35;100.00;95979.53;1029031;28;20519;-50
2021/10/22 02:09:18;;;;;;;7.25;2.80;;;;;;;7.34;100.00;95973.50;1032204;28;20022;-49
2021/10/22 02:09:49;;;;;;;4.22;2.42;;;;;;;7.38;100.00;95976.78;1035478;28;20503;-49
2021/10/22 02:10:20;;;;;;;4.05;2.55;;;;;;;7.38;100.00;95971.56;1035708;28;20268;-50
2021/10/22 02:10:51;;;;;;;4.10;2.40;;;;;;;7.37;100.00;95975.06;1035627;28;20065;-50
2021/10/22 02:11:21;;;;;;;4.50;2.25;;;;;;;7.33;100.00;95978.78;1031475;28;20051;-50
2021/10/22 02:11:52;;;;;;;4.72;2.85;;;;;;;7.31;100.00;95975.44;1031403;28;20069;-49
2021/10/22 02:12:22;;;;;;;3.75;2.40;;;;;;;7.29;100.00;95969.47;1023555;29;20118;-50
2021/10/22 02:12:54;;;;;;;4.57;2.40;;;;;;;7.24;100.00;95974.94;1023259;29;20236;-50
2021/10/22 02:13:24;;;;;;;6.38;2.10;;;;;;;7.26;100.00;95973.06;1027466;28;20027;-50
2021/10/22 02:13:55;;;;;;;4.28;1.80;;;;;;;7.30;100.00;95972.00;1031400;28;20345;-51
2021/10/22 02:14:25;;;;;;;4.30;2.00;;;;;;;7.28;100.00;95975.59;1031780;28;20137;-50
2021/10/22 02:14:56;;;;;;;2.60;1.60;;;;;;;7.27;100.00;95979.16;1031564;28;20134;-49
2021/10/22 02:15:27;;;;;;;2.85;1.50;;;;;;;7.25;100.00;95976.63;1032693;28;20113;-50
2021/10/22 02:15:58;;;;;;;3.50;1.50;;;;;;;7.24;100.00;95979.31;1036265;28;20030;-49
2021/10/22 02:16:29;;;;;;;5.18;1.80;;;;;;;7.25;100.00;95974.03;1036431;28;20755;-50
2021/10/22 02:16:59;;;;;;;4.05;1.60;;;;;;;7.22;100.00;95963.75;1032338;28;20055;-50
2021/10/22 02:17:31;;;;;;;2.90;1.30;;;;;;;7.24;100.00;95972.31;1032414;28;20018;-50
2021/10/22 02:18:02;;;;;;;3.58;1.30;;;;;;;7.24;100.00;95971.50;1032284;28;20113;-50
2021/10/22 02:18:32;;;;;;;3.60;1.70;;;;;;;7.22;100.00;95966.38;1032558;28;20333;-50
2021/10/22 02:19:03;;;;;;;4.00;1.70;;;;;;;7.18;100.00;95970.06;1032704;28;20085;-50
2021/10/22 02:19:34;;;;;;;3.05;1.70;;;;;;;7.17;100.00;95971.84;1032434;28;20026;-50
2021/10/22 02:20:05;;;;;;;2.95;1.60;;;;;;;7.17;100.00;95963.16;1028579;28;20026;-51
2021/10/22 02:20:38;;;;;;;4.03;1.70;;;;;;;7.16;100.00;95964.94;1028630;28;20046;-50
2021/10/22 02:21:09;;;;;;;2.60;1.40;;;;;;;7.15;100.00;95963.28;1028292;28;20328;-50
2021/10/22 02:21:40;;;;;;;3.78;1.63;;;;;;;7.20;100.00;95965.63;1024915;28;20345;-49
2021/10/22 02:22:10;;;;;;;3.80;1.50;;;;;;;7.23;100.00;95969.84;1028238;28;20733;-50
2021/10/22 02:22:41;;;;;;;2.90;1.50;;;;;;;7.20;100.00;95968.22;1028311;28;20101;-49
2021/10/22 02:23:12;;;;;;;3.92;1.60;;;;;;;7.15;100.00;95968.50;1027992;28;20046;-50
2021/10/22 02:23:43;;;;;;;4.03;1.85;;;;;;;7.15;100.00;95968.50;1028248;28;20043;-51
2021/10/22 02:24:13;;;;;;;3.05;1.35;;;;;;;7.11;100.00;95968.75;1032185;28;20266;-49
2021/10/22 02:24:44;;;;;;;3.45;1.27;;;;;;;7.14;100.00;95972.00;1032576;28;20049;-49
2021/10/22 02:25:15;;;;;;;3.25;1.20;;;;;;;7.12;100.00;95970.44;1036397;28;20149;-50
2021/10/22 02:25:46;;;;;;;3.45;1.60;;;;;;;7.09;100.00;95968.00;1032233;28;20415;-49
2021/10/22 02:26:17;;;;;;;3.00;1.35;;;;;;;7.08;100.00;95971.53;1028306;28;20031;-50